createdAt,value
2017-12-31T00:00:45.317Z,0
2017-12-31T00:01:45.316Z,0
2017-12-31T00:02:45.575Z,0
2017-12-31T00:03:45.561Z,0
2017-12-31T00:04:45.561Z,0
2017-12-31T00:05:45.586Z,0
2017-12-31T00:06:45.304Z,0
2017-12-31T00:07:45.305Z,0
2017-12-31T00:08:45.305Z,0
2017-12-31T00:09:45.810Z,0
2017-12-31T00:10:45.809Z,0
2017-12-31T00:11:45.325Z,0
2017-12-31T00:12:45.803Z,0
2017-12-31T00:13:45.029Z,0
2017-12-31T00:14:45.281Z,0
2017-12-31T00:15:45.544Z,0
2017-12-31T00:16:45.831Z,0
2017-12-31T00:17:45.537Z,0
2017-12-31T00:18:45.020Z,0
2017-12-31T00:19:45.763Z,0
2017-12-31T00:20:44.999Z,0
2017-12-31T00:21:45.272Z,0
2017-12-31T00:22:45.501Z,0
2017-12-31T00:23:45.505Z,0
2017-12-31T00:24:45.262Z,0
2017-12-31T00:25:45.252Z,0
2017-12-31T00:26:45.755Z,0
2017-12-31T00:27:45.227Z,0
2017-12-31T00:28:45.013Z,0
2017-12-31T00:29:44.984Z,0
2017-12-31T00:30:44.958Z,0
2017-12-31T00:31:45.725Z,0
2017-12-31T00:32:45.484Z,0
2017-12-31T00:33:45.532Z,0
2017-12-31T00:34:45.215Z,0
2017-12-31T00:35:45.249Z,0
2017-12-31T00:36:44.967Z,0
2017-12-31T00:37:45.461Z,0
2017-12-31T00:38:45.455Z,0
2017-12-31T00:39:45.477Z,0
2017-12-31T00:40:45.748Z,0
2017-12-31T00:41:45.486Z,0
2017-12-31T00:42:45.724Z,0
2017-12-31T00:43:47.574Z,0
2017-12-31T00:44:44.935Z,0
2017-12-31T00:45:45.208Z,0
2017-12-31T00:46:44.951Z,0
2017-12-31T00:47:45.435Z,0
2017-12-31T00:48:45.458Z,0
2017-12-31T00:49:45.429Z,0
2017-12-31T00:50:45.791Z,0
2017-12-31T00:51:45.532Z,0
2017-12-31T00:52:45.421Z,0
2017-12-31T00:53:45.404Z,0
2017-12-31T00:54:45.443Z,0
2017-12-31T00:55:45.426Z,0
2017-12-31T00:56:45.424Z,0
2017-12-31T00:57:45.413Z,0
2017-12-31T00:58:48.675Z,0
2017-12-31T00:59:45.410Z,0
2017-12-31T01:00:45.433Z,0
2017-12-31T01:01:45.375Z,0
2017-12-31T01:02:45.159Z,0
2017-12-31T01:03:45.373Z,0
2017-12-31T01:04:45.429Z,0
2017-12-31T01:05:45.117Z,0
2017-12-31T01:06:45.108Z,0
2017-12-31T01:07:45.124Z,0
2017-12-31T01:08:45.367Z,0
2017-12-31T01:09:45.625Z,0
2017-12-31T01:10:45.359Z,0
2017-12-31T01:11:44.863Z,0
2017-12-31T01:12:45.362Z,0
2017-12-31T01:13:45.357Z,0
2017-12-31T01:14:45.611Z,0
2017-12-31T01:15:45.596Z,0
2017-12-31T01:16:45.613Z,0
2017-12-31T01:17:45.595Z,0
2017-12-31T01:18:45.349Z,0
2017-12-31T01:19:45.348Z,0
2017-12-31T01:20:45.110Z,0
2017-12-31T01:21:44.878Z,0
2017-12-31T01:22:45.081Z,0
2017-12-31T01:23:45.336Z,0
2017-12-31T01:24:45.628Z,0
2017-12-31T01:25:45.654Z,0
2017-12-31T01:26:45.594Z,0
2017-12-31T01:27:45.354Z,0
2017-12-31T01:28:45.065Z,0
2017-12-31T01:29:45.314Z,0
2017-12-31T01:30:45.317Z,0
2017-12-31T01:31:45.065Z,0
2017-12-31T01:32:44.826Z,0
2017-12-31T01:33:45.565Z,0
2017-12-31T01:34:45.307Z,0
2017-12-31T01:35:44.805Z,0
2017-12-31T01:36:45.554Z,0
2017-12-31T01:37:45.305Z,0
2017-12-31T01:38:45.551Z,0
2017-12-31T01:39:45.297Z,0
2017-12-31T01:40:45.046Z,0
2017-12-31T01:41:45.295Z,0
2017-12-31T01:42:45.045Z,0
2017-12-31T01:43:45.042Z,0
2017-12-31T01:44:47.142Z,0
2017-12-31T01:45:45.288Z,0
2017-12-31T01:46:45.293Z,0
2017-12-31T01:47:45.040Z,0
2017-12-31T01:48:45.287Z,0
2017-12-31T01:49:45.280Z,0
2017-12-31T01:50:45.535Z,0
2017-12-31T01:51:45.298Z,0
2017-12-31T01:52:45.539Z,0
2017-12-31T01:53:45.526Z,0
2017-12-31T01:54:45.528Z,0
2017-12-31T01:55:45.525Z,0
2017-12-31T01:56:45.272Z,0
2017-12-31T01:57:45.268Z,0
2017-12-31T01:58:45.526Z,0
2017-12-31T01:59:45.165Z,0
2017-12-31T02:00:45.015Z,0
2017-12-31T02:01:45.258Z,0
2017-12-31T02:02:45.262Z,0
2017-12-31T02:03:45.515Z,0
2017-12-31T02:04:45.265Z,0
2017-12-31T02:05:45.262Z,0
2017-12-31T02:06:45.502Z,0
2017-12-31T02:07:45.247Z,0
2017-12-31T02:08:45.498Z,0
2017-12-31T02:09:45.007Z,0
2017-12-31T02:10:45.007Z,0
2017-12-31T02:11:45.245Z,0
2017-12-31T02:12:45.244Z,0
2017-12-31T02:13:44.999Z,0
2017-12-31T02:14:45.496Z,0
2017-12-31T02:15:45.237Z,0
2017-12-31T02:16:45.508Z,0
2017-12-31T02:17:45.249Z,0
2017-12-31T02:18:45.224Z,0
2017-12-31T02:19:45.226Z,0
2017-12-31T02:20:45.223Z,0
2017-12-31T02:21:45.475Z,0
2017-12-31T02:22:45.218Z,0
2017-12-31T02:23:45.474Z,0
2017-12-31T02:24:44.965Z,0
2017-12-31T02:25:45.472Z,0
2017-12-31T02:26:45.221Z,0
2017-12-31T02:27:45.212Z,0
2017-12-31T02:28:45.465Z,0
2017-12-31T02:29:46.574Z,0
2017-12-31T02:30:44.953Z,0
2017-12-31T02:31:44.949Z,0
2017-12-31T02:32:44.946Z,0
2017-12-31T02:33:45.207Z,0
2017-12-31T02:34:45.193Z,0
2017-12-31T02:35:45.453Z,0
2017-12-31T02:36:45.454Z,0
2017-12-31T02:37:45.185Z,0
2017-12-31T02:38:45.185Z,0
2017-12-31T02:39:45.186Z,0
2017-12-31T02:40:45.192Z,0
2017-12-31T02:41:45.176Z,0
2017-12-31T02:42:45.183Z,0
2017-12-31T02:43:44.937Z,0
2017-12-31T02:44:47.988Z,0
2017-12-31T02:45:44.927Z,0
2017-12-31T02:46:45.171Z,0
2017-12-31T02:47:45.420Z,0
2017-12-31T02:48:45.169Z,0
2017-12-31T02:49:45.172Z,0
2017-12-31T02:50:45.419Z,0
2017-12-31T02:51:45.160Z,0
2017-12-31T02:52:44.900Z,0
2017-12-31T02:53:45.241Z,0
2017-12-31T02:54:44.894Z,0
2017-12-31T02:55:44.894Z,0
2017-12-31T02:56:45.402Z,0
2017-12-31T02:57:44.638Z,0
2017-12-31T02:58:45.135Z,0
2017-12-31T02:59:45.386Z,0
2017-12-31T03:00:45.392Z,0
2017-12-31T03:01:45.392Z,0
2017-12-31T03:02:45.406Z,0
2017-12-31T03:03:45.375Z,0
2017-12-31T03:04:44.630Z,0
2017-12-31T03:05:44.883Z,0
2017-12-31T03:06:45.123Z,0
2017-12-31T03:07:44.631Z,0
2017-12-31T03:08:45.363Z,0
2017-12-31T03:09:45.357Z,0
2017-12-31T03:10:45.376Z,0
2017-12-31T03:11:45.109Z,0
2017-12-31T03:12:45.364Z,0
2017-12-31T03:13:45.102Z,0
2017-12-31T03:14:45.096Z,0
2017-12-31T03:15:45.094Z,0
2017-12-31T03:16:44.847Z,0
2017-12-31T03:17:45.345Z,0
2017-12-31T03:18:45.094Z,0
2017-12-31T03:19:45.336Z,0
2017-12-31T03:20:45.336Z,0
2017-12-31T03:21:45.094Z,0
2017-12-31T03:22:45.092Z,0
2017-12-31T03:23:44.828Z,0
2017-12-31T03:24:44.831Z,0
2017-12-31T03:25:45.334Z,0
2017-12-31T03:26:45.334Z,0
2017-12-31T03:27:45.321Z,0
2017-12-31T03:28:45.069Z,0
2017-12-31T03:29:45.063Z,0
2017-12-31T03:30:45.221Z,0
2017-12-31T03:31:44.817Z,0
2017-12-31T03:32:45.065Z,0
2017-12-31T03:33:45.063Z,0
2017-12-31T03:34:45.062Z,0
2017-12-31T03:35:45.063Z,0
2017-12-31T03:36:45.054Z,0
2017-12-31T03:37:45.051Z,0
2017-12-31T03:38:45.050Z,0
2017-12-31T03:39:44.801Z,0
2017-12-31T03:40:45.317Z,0
2017-12-31T03:41:44.792Z,0
2017-12-31T03:42:44.792Z,0
2017-12-31T03:43:44.792Z,0
2017-12-31T03:44:45.033Z,0
2017-12-31T03:45:45.179Z,0
2017-12-31T03:46:45.062Z,0
2017-12-31T03:47:45.037Z,0
2017-12-31T03:48:44.527Z,0
2017-12-31T03:49:45.038Z,0
2017-12-31T03:50:44.766Z,0
2017-12-31T03:51:44.775Z,0
2017-12-31T03:52:45.040Z,0
2017-12-31T03:53:45.279Z,0
2017-12-31T03:54:45.026Z,0
2017-12-31T03:55:45.021Z,0
2017-12-31T03:56:45.034Z,0
2017-12-31T03:57:45.017Z,0
2017-12-31T03:58:45.019Z,0
2017-12-31T03:59:44.509Z,0
2017-12-31T04:00:45.702Z,0
2017-12-31T04:01:44.995Z,0
2017-12-31T04:02:44.998Z,0
2017-12-31T04:03:44.776Z,0
2017-12-31T04:04:44.747Z,0
2017-12-31T04:05:44.733Z,0
2017-12-31T04:06:45.263Z,0
2017-12-31T04:07:44.988Z,0
2017-12-31T04:08:45.035Z,0
2017-12-31T04:09:44.976Z,0
2017-12-31T04:10:44.988Z,0
2017-12-31T04:11:44.739Z,0
2017-12-31T04:12:44.741Z,0
2017-12-31T04:13:44.980Z,0
2017-12-31T04:14:44.727Z,0
2017-12-31T04:15:45.008Z,0
2017-12-31T04:16:44.712Z,0
2017-12-31T04:17:45.215Z,0
2017-12-31T04:18:44.703Z,0
2017-12-31T04:19:44.698Z,0
2017-12-31T04:20:45.203Z,0
2017-12-31T04:21:45.197Z,0
2017-12-31T04:22:44.950Z,0
2017-12-31T04:23:44.694Z,0
2017-12-31T04:24:45.197Z,0
2017-12-31T04:25:44.689Z,0
2017-12-31T04:26:44.942Z,0
2017-12-31T04:27:44.674Z,0
2017-12-31T04:28:44.938Z,0
2017-12-31T04:29:44.944Z,0
2017-12-31T04:30:51.083Z,0
2017-12-31T04:31:44.938Z,0
2017-12-31T04:32:45.181Z,0
2017-12-31T04:33:44.681Z,0
2017-12-31T04:34:44.928Z,0
2017-12-31T04:35:45.168Z,0
2017-12-31T04:36:44.924Z,0
2017-12-31T04:37:44.921Z,0
2017-12-31T04:38:45.159Z,0
2017-12-31T04:39:44.902Z,0
2017-12-31T04:40:44.905Z,0
2017-12-31T04:41:45.164Z,0
2017-12-31T04:42:44.648Z,0
2017-12-31T04:43:44.651Z,0
2017-12-31T04:44:44.904Z,0
2017-12-31T04:45:44.897Z,0
2017-12-31T04:46:44.885Z,0
2017-12-31T04:47:44.905Z,0
2017-12-31T04:48:44.880Z,0
2017-12-31T04:49:44.887Z,0
2017-12-31T04:50:45.131Z,0
2017-12-31T04:51:44.871Z,0
2017-12-31T04:52:44.872Z,0
2017-12-31T04:53:44.867Z,0
2017-12-31T04:54:45.176Z,0
2017-12-31T04:55:44.862Z,0
2017-12-31T04:56:44.862Z,0
2017-12-31T04:57:44.858Z,0
2017-12-31T04:58:44.850Z,0
2017-12-31T04:59:44.863Z,0
2017-12-31T05:00:44.642Z,0
2017-12-31T05:01:45.005Z,0
2017-12-31T05:02:45.120Z,0
2017-12-31T05:03:44.597Z,0
2017-12-31T05:04:44.601Z,0
2017-12-31T05:05:44.842Z,0
2017-12-31T05:06:44.838Z,0
2017-12-31T05:07:44.835Z,0
2017-12-31T05:08:44.831Z,0
2017-12-31T05:09:44.831Z,0
2017-12-31T05:10:45.099Z,0
2017-12-31T05:11:44.832Z,0
2017-12-31T05:12:45.089Z,0
2017-12-31T05:13:44.574Z,0
2017-12-31T05:14:44.819Z,0
2017-12-31T05:15:44.887Z,0
2017-12-31T05:16:45.089Z,0
2017-12-31T05:17:45.071Z,0
2017-12-31T05:18:44.570Z,0
2017-12-31T05:19:45.113Z,0
2017-12-31T05:20:44.809Z,0
2017-12-31T05:21:45.057Z,0
2017-12-31T05:22:45.067Z,0
2017-12-31T05:23:44.559Z,0
2017-12-31T05:24:44.793Z,0
2017-12-31T05:25:45.048Z,0
2017-12-31T05:26:44.794Z,0
2017-12-31T05:27:44.792Z,0
2017-12-31T05:28:44.791Z,0
2017-12-31T05:29:45.046Z,0
2017-12-31T05:30:44.281Z,0
2017-12-31T05:31:45.489Z,0
2017-12-31T05:32:45.056Z,0
2017-12-31T05:33:45.036Z,0
2017-12-31T05:34:44.792Z,0
2017-12-31T05:35:44.283Z,0
2017-12-31T05:36:44.783Z,0
2017-12-31T05:37:44.522Z,0
2017-12-31T05:38:44.530Z,0
2017-12-31T05:39:44.775Z,0
2017-12-31T05:40:44.765Z,0
2017-12-31T05:41:45.019Z,0
2017-12-31T05:42:44.759Z,0
2017-12-31T05:43:45.014Z,0
2017-12-31T05:44:44.769Z,0
2017-12-31T05:45:44.759Z,0
2017-12-31T05:46:45.561Z,0
2017-12-31T05:47:45.015Z,0
2017-12-31T05:48:44.750Z,0
2017-12-31T05:49:44.999Z,0
2017-12-31T05:50:44.542Z,0
2017-12-31T05:51:44.492Z,0
2017-12-31T05:52:44.759Z,0
2017-12-31T05:53:44.734Z,0
2017-12-31T05:54:44.494Z,0
2017-12-31T05:55:44.731Z,0
2017-12-31T05:56:44.483Z,0
2017-12-31T05:57:44.493Z,0
2017-12-31T05:58:44.982Z,0
2017-12-31T05:59:44.972Z,0
2017-12-31T06:00:44.721Z,0
2017-12-31T06:01:44.670Z,0
2017-12-31T06:02:44.966Z,0
2017-12-31T06:03:44.972Z,0
2017-12-31T06:04:44.465Z,0
2017-12-31T06:05:44.203Z,0
2017-12-31T06:06:44.450Z,0
2017-12-31T06:07:44.455Z,0
2017-12-31T06:08:44.698Z,0
2017-12-31T06:09:44.969Z,0
2017-12-31T06:10:44.957Z,0
2017-12-31T06:11:44.693Z,0
2017-12-31T06:12:44.692Z,0
2017-12-31T06:13:44.692Z,0
2017-12-31T06:14:44.694Z,0
2017-12-31T06:15:44.432Z,0
2017-12-31T06:16:45.233Z,0
2017-12-31T06:17:44.678Z,0
2017-12-31T06:18:44.441Z,0
2017-12-31T06:19:44.672Z,0
2017-12-31T06:20:44.922Z,0
2017-12-31T06:21:44.421Z,0
2017-12-31T06:22:44.415Z,0
2017-12-31T06:23:44.674Z,0
2017-12-31T06:24:44.664Z,0
2017-12-31T06:25:44.658Z,0
2017-12-31T06:26:44.408Z,0
2017-12-31T06:27:44.904Z,0
2017-12-31T06:28:44.660Z,0
2017-12-31T06:29:44.401Z,0
2017-12-31T06:30:44.648Z,0
2017-12-31T06:31:44.942Z,0
2017-12-31T06:32:44.895Z,0
2017-12-31T06:33:44.142Z,0
2017-12-31T06:34:44.647Z,0
2017-12-31T06:35:44.141Z,0
2017-12-31T06:36:44.638Z,0
2017-12-31T06:37:44.883Z,0
2017-12-31T06:38:44.378Z,0
2017-12-31T06:39:44.376Z,0
2017-12-31T06:40:44.622Z,0
2017-12-31T06:41:44.878Z,0
2017-12-31T06:42:44.625Z,0
2017-12-31T06:43:44.872Z,0
2017-12-31T06:44:44.626Z,0
2017-12-31T06:45:44.615Z,0
2017-12-31T06:46:44.362Z,0
2017-12-31T06:47:44.361Z,4
2017-12-31T06:48:44.861Z,4
2017-12-31T06:49:44.355Z,4
2017-12-31T06:50:44.859Z,0
2017-12-31T06:51:44.863Z,0
2017-12-31T06:52:44.597Z,4
2017-12-31T06:53:44.866Z,4
2017-12-31T06:54:44.866Z,4
2017-12-31T06:55:44.595Z,4
2017-12-31T06:56:44.594Z,8
2017-12-31T06:57:44.594Z,8
2017-12-31T06:58:44.863Z,8
2017-12-31T06:59:44.640Z,12
2017-12-31T07:00:44.862Z,12
2017-12-31T07:01:44.584Z,12
2017-12-31T07:02:45.436Z,16
2017-12-31T07:03:44.572Z,16
2017-12-31T07:04:44.320Z,20
2017-12-31T07:05:44.573Z,20
2017-12-31T07:06:44.584Z,28
2017-12-31T07:07:44.829Z,36
2017-12-31T07:08:44.308Z,32
2017-12-31T07:09:44.812Z,32
2017-12-31T07:10:44.557Z,36
2017-12-31T07:11:44.564Z,44
2017-12-31T07:12:44.808Z,48
2017-12-31T07:13:44.554Z,60
2017-12-31T07:14:44.564Z,68
2017-12-31T07:15:44.547Z,76
2017-12-31T07:16:44.295Z,84
2017-12-31T07:17:45.360Z,100
2017-12-31T07:18:44.540Z,120
2017-12-31T07:19:44.601Z,128
2017-12-31T07:20:44.289Z,124
2017-12-31T07:21:44.288Z,124
2017-12-31T07:22:44.802Z,140
2017-12-31T07:23:44.532Z,152
2017-12-31T07:24:44.552Z,148
2017-12-31T07:25:44.534Z,148
2017-12-31T07:26:44.780Z,148
2017-12-31T07:27:44.537Z,164
2017-12-31T07:28:44.281Z,200
2017-12-31T07:29:44.781Z,236
2017-12-31T07:30:44.519Z,280
2017-12-31T07:31:44.524Z,320
2017-12-31T07:32:45.047Z,360
2017-12-31T07:33:44.509Z,384
2017-12-31T07:34:44.796Z,420
2017-12-31T07:35:44.762Z,444
2017-12-31T07:36:44.268Z,468
2017-12-31T07:37:44.514Z,476
2017-12-31T07:38:44.268Z,492
2017-12-31T07:39:44.498Z,476
2017-12-31T07:40:44.762Z,448
2017-12-31T07:41:44.498Z,460
2017-12-31T07:42:44.759Z,524
2017-12-31T07:43:44.747Z,600
2017-12-31T07:44:44.498Z,656
2017-12-31T07:45:44.499Z,688
2017-12-31T07:46:44.492Z,716
2017-12-31T07:47:44.786Z,756
2017-12-31T07:48:44.491Z,788
2017-12-31T07:49:44.484Z,828
2017-12-31T07:50:44.482Z,864
2017-12-31T07:51:44.735Z,908
2017-12-31T07:52:44.723Z,952
2017-12-31T07:53:44.723Z,992
2017-12-31T07:54:44.472Z,1016
2017-12-31T07:55:44.220Z,1040
2017-12-31T07:56:44.464Z,1056
2017-12-31T07:57:44.465Z,1096
2017-12-31T07:58:44.467Z,1168
2017-12-31T07:59:44.469Z,1212
2017-12-31T08:00:44.704Z,1244
2017-12-31T08:01:43.948Z,1308
2017-12-31T08:02:45.381Z,1372
2017-12-31T08:03:44.456Z,1368
2017-12-31T08:04:44.447Z,1428
2017-12-31T08:05:44.697Z,1416
2017-12-31T08:06:44.689Z,1336
2017-12-31T08:07:44.686Z,1296
2017-12-31T08:08:44.701Z,1284
2017-12-31T08:09:44.181Z,1292
2017-12-31T08:10:44.429Z,1288
2017-12-31T08:11:44.434Z,1280
2017-12-31T08:12:44.174Z,1268
2017-12-31T08:13:44.437Z,1300
2017-12-31T08:14:44.184Z,1312
2017-12-31T08:15:44.419Z,1332
2017-12-31T08:16:44.167Z,1356
2017-12-31T08:17:45.472Z,1408
2017-12-31T08:18:44.706Z,1492
2017-12-31T08:19:44.423Z,1564
2017-12-31T08:20:44.427Z,1636
2017-12-31T08:21:44.168Z,1720
2017-12-31T08:22:44.669Z,1820
2017-12-31T08:23:44.408Z,1812
2017-12-31T08:24:44.657Z,1840
2017-12-31T08:25:44.703Z,1880
2017-12-31T08:26:44.405Z,1912
2017-12-31T08:27:44.406Z,1960
2017-12-31T08:28:44.410Z,1976
2017-12-31T08:29:44.645Z,1972
2017-12-31T08:30:44.639Z,2016
2017-12-31T08:31:44.633Z,2028
2017-12-31T08:32:44.387Z,2028
2017-12-31T08:33:44.136Z,2328
2017-12-31T08:34:44.385Z,2184
2017-12-31T08:35:44.377Z,2204
2017-12-31T08:37:15.998Z,2276
2017-12-31T08:37:44.648Z,2380
2017-12-31T08:38:43.888Z,2504
2017-12-31T08:39:44.128Z,3180
2017-12-31T08:40:44.374Z,3284
2017-12-31T08:41:44.629Z,3124
2017-12-31T08:42:44.627Z,3008
2017-12-31T08:43:44.129Z,3144
2017-12-31T08:44:44.415Z,3272
2017-12-31T08:45:44.365Z,3312
2017-12-31T08:46:44.625Z,3336
2017-12-31T08:47:44.625Z,3308
2017-12-31T08:48:46.564Z,3392
2017-12-31T08:49:44.619Z,3492
2017-12-31T08:50:44.362Z,3488
2017-12-31T08:51:44.368Z,3360
2017-12-31T08:52:44.099Z,3316
2017-12-31T08:53:44.604Z,3320
2017-12-31T08:54:44.359Z,3164
2017-12-31T08:55:44.366Z,3004
2017-12-31T08:56:44.349Z,2760
2017-12-31T08:57:44.345Z,2624
2017-12-31T08:58:44.344Z,2644
2017-12-31T08:59:44.347Z,2676
2017-12-31T09:00:44.643Z,2756
2017-12-31T09:01:44.339Z,2864
2017-12-31T09:02:44.598Z,2984
2017-12-31T09:03:45.086Z,3160
2017-12-31T09:04:44.593Z,3284
2017-12-31T09:05:44.100Z,3352
2017-12-31T09:06:44.342Z,3352
2017-12-31T09:07:44.342Z,3308
2017-12-31T09:08:44.331Z,3248
2017-12-31T09:09:44.332Z,3204
2017-12-31T09:10:44.076Z,3152
2017-12-31T09:11:44.579Z,3044
2017-12-31T09:12:44.338Z,2964
2017-12-31T09:13:44.077Z,2900
2017-12-31T09:14:44.578Z,2852
2017-12-31T09:15:44.574Z,2772
2017-12-31T09:16:44.073Z,2664
2017-12-31T09:17:44.073Z,2664
2017-12-31T09:18:45.331Z,2768
2017-12-31T09:19:44.572Z,2820
2017-12-31T09:20:44.574Z,2840
2017-12-31T09:21:44.351Z,2848
2017-12-31T09:22:44.309Z,2824
2017-12-31T09:23:44.326Z,2836
2017-12-31T09:24:44.308Z,2904
2017-12-31T09:25:44.313Z,4076
2017-12-31T09:26:44.584Z,4176
2017-12-31T09:27:44.561Z,4076
2017-12-31T09:28:44.302Z,2832
2017-12-31T09:29:44.553Z,2740
2017-12-31T09:30:44.304Z,2824
2017-12-31T09:31:44.313Z,2920
2017-12-31T09:32:44.561Z,3020
2017-12-31T09:33:46.050Z,3116
2017-12-31T09:34:44.297Z,3276
2017-12-31T09:35:44.040Z,3412
2017-12-31T09:36:44.292Z,3540
2017-12-31T09:37:44.290Z,3620
2017-12-31T09:38:44.301Z,3648
2017-12-31T09:39:44.578Z,3616
2017-12-31T09:40:44.287Z,3412
2017-12-31T09:41:44.540Z,3140
2017-12-31T09:42:44.043Z,2880
2017-12-31T09:43:44.539Z,2720
2017-12-31T09:44:44.532Z,2716
2017-12-31T09:45:44.535Z,2752
2017-12-31T09:46:44.031Z,2908
2017-12-31T09:47:44.535Z,2952
2017-12-31T09:48:44.286Z,2880
2017-12-31T09:49:44.283Z,2824
2017-12-31T09:50:44.535Z,2820
2017-12-31T09:51:44.025Z,2852
2017-12-31T09:52:44.285Z,2808
2017-12-31T09:53:44.284Z,2924
2017-12-31T09:54:43.778Z,3176
2017-12-31T09:55:44.019Z,3168
2017-12-31T09:56:44.289Z,3332
2017-12-31T09:57:44.288Z,3472
2017-12-31T09:58:44.267Z,3700
2017-12-31T09:59:44.272Z,3760
2017-12-31T10:00:44.321Z,3748
2017-12-31T10:01:44.267Z,3828
2017-12-31T10:02:44.018Z,3820
2017-12-31T10:03:44.518Z,3948
2017-12-31T10:04:44.260Z,3924
2017-12-31T10:05:44.597Z,3548
2017-12-31T10:06:44.531Z,3280
2017-12-31T10:07:44.266Z,3172
2017-12-31T10:08:44.513Z,2884
2017-12-31T10:09:44.256Z,2812
2017-12-31T10:10:44.022Z,2608
2017-12-31T10:11:44.265Z,2320
2017-12-31T10:12:44.000Z,2292
2017-12-31T10:13:44.258Z,2408
2017-12-31T10:14:43.998Z,2600
2017-12-31T10:15:44.501Z,2804
2017-12-31T10:16:44.006Z,2864
2017-12-31T10:17:43.997Z,2808
2017-12-31T10:18:44.249Z,2920
2017-12-31T10:19:44.248Z,3000
2017-12-31T10:20:44.000Z,3068
2017-12-31T10:21:44.243Z,2984
2017-12-31T10:52:28.039Z,3920
2017-12-31T10:53:27.784Z,4176
2017-12-31T10:54:27.802Z,4216
2017-12-31T10:55:27.759Z,4212
2017-12-31T10:56:28.105Z,4232
2017-12-31T10:57:27.784Z,4256
2017-12-31T10:58:27.496Z,4224
2017-12-31T10:59:28.009Z,4168
2017-12-31T11:00:27.986Z,4324
2017-12-31T11:01:27.744Z,4504
2017-12-31T11:02:27.753Z,4552
2017-12-31T11:03:27.730Z,4596
2017-12-31T11:04:27.973Z,4640
2017-12-31T11:05:27.994Z,4528
2017-12-31T11:06:27.729Z,3984
2017-12-31T11:07:28.789Z,3252
2017-12-31T11:08:27.991Z,2720
2017-12-31T11:09:27.467Z,2436
2017-12-31T11:10:27.710Z,2308
2017-12-31T11:11:27.997Z,2288
2017-12-31T11:12:27.460Z,2296
2017-12-31T11:13:27.968Z,2312
2017-12-31T11:14:28.020Z,2436
2017-12-31T11:15:27.258Z,2712
2017-12-31T11:16:27.721Z,3148
2017-12-31T11:17:27.717Z,3780
2017-12-31T11:18:27.449Z,4080
2017-12-31T11:19:27.202Z,4144
2017-12-31T11:20:27.462Z,4320
2017-12-31T11:21:27.461Z,4720
2017-12-31T11:22:27.721Z,4976
2017-12-31T11:23:27.723Z,5104
2017-12-31T11:24:27.965Z,5096
2017-12-31T11:25:27.465Z,5216
2017-12-31T11:26:27.705Z,5260
2017-12-31T11:27:27.966Z,5244
2017-12-31T11:28:27.701Z,5228
2017-12-31T11:29:27.721Z,5220
2017-12-31T11:30:27.958Z,5248
2017-12-31T11:31:27.986Z,5212
2017-12-31T11:32:27.700Z,5144
2017-12-31T11:33:27.450Z,5052
2017-12-31T11:34:27.960Z,4912
2017-12-31T11:35:27.698Z,4856
2017-12-31T11:36:27.705Z,4972
2017-12-31T11:37:27.947Z,5248
2017-12-31T11:38:27.454Z,5236
2017-12-31T11:39:27.956Z,6492
2017-12-31T11:40:27.440Z,5856
2017-12-31T11:41:27.462Z,5232
2017-12-31T11:42:27.703Z,4724
2017-12-31T11:43:27.694Z,4540
2017-12-31T11:44:27.955Z,4348
2017-12-31T11:45:27.535Z,4304
2017-12-31T11:46:27.961Z,4312
2017-12-31T11:47:27.965Z,4332
2017-12-31T11:48:27.787Z,4296
2017-12-31T11:49:28.023Z,4244
2017-12-31T11:50:27.692Z,4200
2017-12-31T11:51:27.201Z,4140
2017-12-31T11:52:27.748Z,4112
2017-12-31T11:53:27.696Z,4092
2017-12-31T11:54:27.696Z,4128
2017-12-31T11:55:27.497Z,4200
2017-12-31T11:56:27.451Z,4224
2017-12-31T11:57:27.955Z,4188
2017-12-31T11:58:27.753Z,4116
2017-12-31T11:59:27.453Z,4020
2017-12-31T12:00:27.719Z,3892
2017-12-31T12:01:27.979Z,3780
2017-12-31T12:02:27.702Z,3720
2017-12-31T12:03:28.008Z,3712
2017-12-31T12:04:27.450Z,3708
2017-12-31T12:05:27.963Z,3708
2017-12-31T12:06:27.709Z,3784
2017-12-31T12:07:28.667Z,3852
2017-12-31T12:08:27.701Z,3840
2017-12-31T12:09:27.707Z,3812
2017-12-31T12:10:27.207Z,3720
2017-12-31T12:11:27.732Z,3596
2017-12-31T12:12:27.700Z,3552
2017-12-31T12:13:27.219Z,3532
2017-12-31T12:14:27.455Z,3484
2017-12-31T12:15:27.779Z,3428
2017-12-31T12:16:27.976Z,3480
2017-12-31T12:17:27.545Z,3560
2017-12-31T12:18:27.981Z,3488
2017-12-31T12:19:27.228Z,3364
2017-12-31T12:20:27.507Z,3472
2017-12-31T12:21:27.236Z,3708
2017-12-31T12:22:27.732Z,3936
2017-12-31T12:23:27.458Z,4156
2017-12-31T12:24:27.836Z,4376
2017-12-31T12:25:27.479Z,4544
2017-12-31T12:26:27.738Z,4648
2017-12-31T12:27:27.507Z,4700
2017-12-31T12:28:27.469Z,4744
2017-12-31T12:29:27.973Z,4892
2017-12-31T12:30:27.707Z,5168
2017-12-31T12:31:27.967Z,4972
2017-12-31T12:32:27.736Z,4976
2017-12-31T12:33:27.496Z,4972
2017-12-31T12:34:27.743Z,5012
2017-12-31T12:35:27.766Z,5084
2017-12-31T12:36:27.487Z,5108
2017-12-31T12:37:27.740Z,5128
2017-12-31T12:38:27.741Z,5120
2017-12-31T12:39:27.989Z,5244
2017-12-31T12:40:27.716Z,5404
2017-12-31T12:41:27.233Z,5816
2017-12-31T12:42:27.786Z,5812
2017-12-31T12:43:27.977Z,5836
2017-12-31T12:44:27.729Z,5824
2017-12-31T12:45:27.487Z,5724
2017-12-31T12:46:27.492Z,5544
2017-12-31T12:47:27.973Z,5076
2017-12-31T12:48:28.236Z,4976
2017-12-31T12:49:27.498Z,4844
2017-12-31T12:50:27.506Z,4816
2017-12-31T12:51:27.730Z,4760
2017-12-31T12:52:28.056Z,4740
2017-12-31T12:53:27.490Z,4696
2017-12-31T12:54:27.217Z,4580
2017-12-31T12:55:28.074Z,4540
2017-12-31T12:56:27.921Z,4468
2017-12-31T12:57:27.474Z,4412
2017-12-31T12:58:27.755Z,4404
2017-12-31T12:59:27.229Z,4408
2017-12-31T13:00:27.771Z,4324
2017-12-31T13:01:28.018Z,4256
2017-12-31T13:02:28.029Z,4228
2017-12-31T13:03:27.513Z,4232
2017-12-31T13:04:27.737Z,4164
2017-12-31T13:05:27.747Z,4088
2017-12-31T13:06:27.506Z,4028
2017-12-31T13:07:28.803Z,3968
2017-12-31T13:08:27.736Z,3928
2017-12-31T13:09:27.225Z,3908
2017-12-31T13:10:27.756Z,3888
2017-12-31T13:11:27.773Z,3876
2017-12-31T13:12:27.754Z,3860
2017-12-31T13:13:28.001Z,3832
2017-12-31T13:14:27.765Z,3808
2017-12-31T13:15:27.503Z,3792
2017-12-31T13:16:27.785Z,3772
2017-12-31T13:17:27.980Z,3752
2017-12-31T13:18:27.756Z,3724
2017-12-31T13:19:27.750Z,3708
2017-12-31T13:20:27.765Z,3692
2017-12-31T13:21:28.018Z,3692
2017-12-31T13:22:27.501Z,3688
2017-12-31T13:23:27.509Z,3704
2017-12-31T13:24:27.751Z,3788
2017-12-31T13:25:27.506Z,3924
2017-12-31T13:26:27.778Z,3880
2017-12-31T13:27:28.013Z,3764
2017-12-31T13:28:27.738Z,3732
2017-12-31T13:29:28.035Z,3736
2017-12-31T13:30:27.986Z,3796
2017-12-31T13:31:27.767Z,3960
2017-12-31T13:32:27.753Z,3880
2017-12-31T13:33:27.489Z,3856
2017-12-31T13:34:27.745Z,3932
2017-12-31T13:35:28.037Z,4048
2017-12-31T13:36:27.513Z,4188
2017-12-31T13:37:29.101Z,4188
2017-12-31T13:38:28.073Z,4260
2017-12-31T13:39:27.734Z,4316
2017-12-31T13:40:27.979Z,4392
2017-12-31T13:41:27.777Z,4372
2017-12-31T13:42:27.738Z,4284
2017-12-31T13:43:27.730Z,4240
2017-12-31T13:44:27.721Z,4224
2017-12-31T13:45:27.993Z,4144
2017-12-31T13:46:27.776Z,4140
2017-12-31T13:47:27.743Z,4104
2017-12-31T13:48:27.757Z,4036
2017-12-31T13:49:27.476Z,4000
2017-12-31T13:50:27.727Z,3940
2017-12-31T13:51:27.495Z,3904
2017-12-31T13:52:27.737Z,3876
2017-12-31T13:53:27.750Z,3876
2017-12-31T13:54:27.521Z,3864
2017-12-31T13:55:27.503Z,3848
2017-12-31T13:56:27.264Z,3820
2017-12-31T13:57:27.764Z,3784
2017-12-31T13:58:27.811Z,3756
2017-12-31T13:59:27.724Z,3712
2017-12-31T14:00:27.488Z,3676
2017-12-31T14:01:28.015Z,3644
2017-12-31T14:02:27.731Z,3608
2017-12-31T14:03:28.014Z,3584
2017-12-31T14:04:27.508Z,3568
2017-12-31T14:05:27.735Z,3560
2017-12-31T14:06:27.503Z,3544
2017-12-31T14:07:27.515Z,3508
2017-12-31T14:08:27.237Z,3472
2017-12-31T14:09:27.719Z,3432
2017-12-31T14:10:27.484Z,3384
2017-12-31T14:11:27.785Z,3324
2017-12-31T14:12:27.782Z,3256
2017-12-31T14:13:27.488Z,3184
2017-12-31T14:14:28.004Z,3096
2017-12-31T14:15:27.481Z,3004
2017-12-31T14:16:27.487Z,2920
2017-12-31T14:17:27.488Z,2840
2017-12-31T14:18:27.778Z,2780
2017-12-31T14:19:27.491Z,2720
2017-12-31T14:20:27.727Z,2664
2017-12-31T14:21:27.772Z,2620
2017-12-31T14:22:27.739Z,2568
2017-12-31T14:23:27.719Z,2508
2017-12-31T14:24:27.743Z,2444
2017-12-31T14:25:27.992Z,2400
2017-12-31T14:26:28.000Z,2372
2017-12-31T14:27:28.018Z,2344
2017-12-31T14:28:27.227Z,2324
2017-12-31T14:29:27.718Z,2304
2017-12-31T14:30:28.113Z,2300
2017-12-31T14:31:27.755Z,2288
2017-12-31T14:32:27.738Z,2276